createdAt,value
2022-08-28T00:02:18.624Z,99928.47
2022-08-28T00:05:08.972Z,99923.94
2022-08-28T00:07:57.297Z,99935.91
2022-08-28T00:10:46.486Z,99928.81
2022-08-28T00:13:37.262Z,99938.78
2022-08-28T00:16:26.527Z,99948.59
2022-08-28T00:19:16.599Z,99943.06
2022-08-28T00:22:04.539Z,99942.28
2022-08-28T00:24:52.440Z,99935.16
2022-08-28T00:27:55.871Z,99945.66
2022-08-28T00:30:54.523Z,99953.38
2022-08-28T00:33:42.458Z,99949.31
2022-08-28T00:36:33.382Z,99956.50
2022-08-28T00:39:24.182Z,99951.94
2022-08-28T00:42:12.226Z,99930.47
2022-08-28T00:45:00.493Z,99958.38
2022-08-28T00:47:48.463Z,99949.91
2022-08-28T00:50:56.753Z,99954.03
2022-08-28T00:53:49.103Z,99961.41
2022-08-28T00:56:43.508Z,99946.28
2022-08-28T00:59:31.336Z,99949.06
2022-08-28T01:02:19.763Z,99942.16
2022-08-28T01:05:09.621Z,99944.47
2022-08-28T01:07:59.019Z,99948.03
2022-08-28T01:10:53.233Z,99928.13
2022-08-28T01:13:46.686Z,99951.88
2022-08-28T01:16:36.269Z,99943.75
2022-08-28T01:19:35.109Z,99926.53
2022-08-28T01:22:43.881Z,99941.44
2022-08-28T01:25:35.198Z,99952.22
2022-08-28T01:28:23.322Z,99942.47
2022-08-28T01:31:16.110Z,99939.19
2022-08-28T01:34:05.873Z,99948.41
2022-08-28T01:36:53.961Z,99936.13
2022-08-28T01:39:41.805Z,99946.88
2022-08-28T01:42:29.684Z,99932.81
2022-08-28T01:45:20.549Z,99933.81
2022-08-28T01:48:09.008Z,99938.41
2022-08-28T01:50:56.973Z,99931.22
2022-08-28T01:53:45.136Z,99930.97
2022-08-28T01:56:38.058Z,99928.19
2022-08-28T01:59:26.103Z,99942.25
2022-08-28T02:02:14.044Z,99938.94
2022-08-28T02:05:01.976Z,99948.13
2022-08-28T02:07:53.468Z,99946.63
2022-08-28T02:10:43.720Z,99957.31
2022-08-28T02:13:31.931Z,99948.41
2022-08-28T02:16:21.031Z,99946.34
2022-08-28T02:19:08.938Z,99940.69
2022-08-28T02:21:56.807Z,99950.38
2022-08-28T02:24:45.323Z,99950.59
2022-08-28T02:27:33.543Z,99966.44
2022-08-28T02:30:21.970Z,99965.66
2022-08-28T02:33:09.862Z,99970.03
2022-08-28T02:35:57.780Z,99960.06
2022-08-28T02:38:55.343Z,99958.78
2022-08-28T02:41:45.636Z,99957.50
2022-08-28T02:44:34.105Z,99961.09
2022-08-28T02:47:21.979Z,99965.63
2022-08-28T02:50:13.119Z,99964.59
2022-08-28T02:53:01.038Z,99957.34
2022-08-28T02:55:48.880Z,99949.94
2022-08-28T02:58:36.976Z,99968.13
2022-08-28T03:01:24.929Z,99964.03
2022-08-28T03:04:13.066Z,99963.28
2022-08-28T03:07:00.961Z,99932.25
2022-08-28T03:09:50.005Z,99964.50
2022-08-28T03:12:38.397Z,99957.34
2022-08-28T03:15:26.226Z,99964.75
2022-08-28T03:18:15.698Z,99963.41
2022-08-28T03:21:04.574Z,99971.63
2022-08-28T03:23:52.868Z,99959.16
2022-08-28T03:26:40.689Z,99964.78
2022-08-28T03:29:28.683Z,99960.72
2022-08-28T03:32:16.513Z,99955.88
2022-08-28T03:35:05.545Z,99957.38
2022-08-28T03:37:53.405Z,99976.50
2022-08-28T03:40:42.563Z,99964.22
2022-08-28T03:43:31.480Z,99959.34
2022-08-28T03:46:23.690Z,99962.69
2022-08-28T03:49:11.664Z,99982.88
2022-08-28T03:51:59.631Z,99990.19
2022-08-28T03:54:48.077Z,99968.44
2022-08-28T03:57:37.556Z,99978.69
2022-08-28T04:00:25.966Z,99975.66
2022-08-28T04:03:14.062Z,99966.69
2022-08-28T04:06:02.064Z,99955.91
2022-08-28T04:08:51.099Z,99950.25
2022-08-28T04:11:42.461Z,99976.09
2022-08-28T04:14:30.292Z,99967.91
2022-08-28T04:17:18.072Z,99969.16
2022-08-28T04:20:08.129Z,99975.31
2022-08-28T04:22:55.965Z,99977.06
2022-08-28T04:25:43.731Z,99966.75
2022-08-28T04:28:32.638Z,99969.34
2022-08-28T04:31:31.027Z,99972.13
2022-08-28T04:34:20.365Z,99983.63
2022-08-28T04:37:08.191Z,99986.34
2022-08-28T04:39:56.038Z,99991.94
2022-08-28T04:42:45.069Z,99991.94
2022-08-28T04:45:33.436Z,99990.91
2022-08-28T04:48:21.228Z,99996.25
2022-08-28T04:51:12.283Z,99992.16
2022-08-28T04:54:02.926Z,99993.41
2022-08-28T04:56:51.101Z,99994.22
2022-08-28T04:59:40.652Z,99989.09
2022-08-28T05:02:28.548Z,99997.75
2022-08-28T05:05:17.214Z,99994.22
2022-08-28T05:08:06.434Z,100004.41
2022-08-28T05:10:55.874Z,100007.63
2022-08-28T05:13:43.797Z,100001.22
2022-08-28T05:16:32.027Z,100010.63
2022-08-28T05:19:21.021Z,100004.78
2022-08-28T05:22:11.417Z,100013.75
2022-08-28T05:25:01.091Z,100018.38
2022-08-28T05:27:48.897Z,100004.56
2022-08-28T05:30:38.400Z,100029.38
2022-08-28T05:33:26.189Z,100034.47
2022-08-28T05:36:16.221Z,100028.50
2022-08-28T05:39:09.957Z,100022.97
2022-08-28T05:41:57.741Z,100040.56
2022-08-28T05:44:45.610Z,100049.19
2022-08-28T05:47:33.424Z,100053.22
2022-08-28T05:50:21.475Z,100008.56
2022-08-28T05:53:09.285Z,100052.97
2022-08-28T05:55:57.085Z,100046.63
2022-08-28T05:58:45.089Z,100044.81
2022-08-28T06:01:37.105Z,100030.88
2022-08-28T06:04:28.142Z,100059.84
2022-08-28T06:07:16.069Z,100051.53
2022-08-28T06:10:04.555Z,100042.41
2022-08-28T06:12:54.017Z,100046.31
2022-08-28T06:15:43.765Z,100047.16
2022-08-28T06:18:31.822Z,100060.94
2022-08-28T06:21:20.688Z,100051.66
2022-08-28T06:24:10.683Z,100022.13
2022-08-28T06:26:59.632Z,100068.03
2022-08-28T06:29:47.464Z,100062.69
2022-08-28T06:32:35.324Z,100061.09
2022-08-28T06:35:23.268Z,100066.00
2022-08-28T06:38:14.452Z,100056.56
2022-08-28T06:41:02.566Z,100064.53
2022-08-28T06:43:50.546Z,100062.09
2022-08-28T06:46:38.984Z,100074.41
2022-08-28T06:49:26.787Z,100065.88
2022-08-28T06:52:14.861Z,100079.69
2022-08-28T06:55:02.846Z,100068.13
2022-08-28T06:57:51.088Z,100085.84
2022-08-28T07:00:40.432Z,100068.81
2022-08-28T07:03:30.163Z,100086.50
2022-08-28T07:06:19.150Z,100055.84
2022-08-28T07:09:11.282Z,100056.13
2022-08-28T07:11:59.261Z,100080.69
2022-08-28T07:14:47.065Z,100073.31
2022-08-28T07:17:34.930Z,100080.28
2022-08-28T07:20:22.882Z,100092.28
2022-08-28T07:23:11.440Z,100082.47
2022-08-28T07:26:00.234Z,100085.34
2022-08-28T07:28:48.275Z,100083.78
2022-08-28T07:31:37.746Z,100084.03
2022-08-28T07:34:26.936Z,100090.19
2022-08-28T07:37:17.834Z,100090.44
2022-08-28T07:40:07.056Z,100082.19
2022-08-28T07:43:14.050Z,100097.56
2022-08-28T07:46:07.116Z,100080.56
2022-08-28T07:48:55.666Z,100089.34
2022-08-28T07:51:43.680Z,100085.81
2022-08-28T07:54:36.105Z,100089.13
2022-08-28T07:57:24.074Z,100082.75
2022-08-28T08:00:13.229Z,100105.03
2022-08-28T08:03:01.463Z,100097.59
2022-08-28T08:05:57.477Z,100104.69
2022-08-28T08:08:46.353Z,100109.00
2022-08-28T08:11:34.822Z,100115.25
2022-08-28T08:14:23.418Z,100105.72
2022-08-28T08:17:12.059Z,100107.47
2022-08-28T08:20:01.187Z,100111.53
2022-08-28T08:22:49.253Z,100088.13
2022-08-28T08:25:37.120Z,100109.63
2022-08-28T08:28:26.092Z,100111.09
2022-08-28T08:31:27.635Z,100113.78
2022-08-28T08:34:16.950Z,100113.38
2022-08-28T08:37:05.906Z,100107.66
2022-08-28T08:39:54.846Z,100108.47
2022-08-28T08:42:49.141Z,100126.53
2022-08-28T08:45:38.572Z,100133.47
2022-08-28T08:48:37.038Z,100118.25
2022-08-28T08:52:06.343Z,100123.72
2022-08-28T08:55:28.353Z,100133.16
2022-08-28T08:58:38.424Z,100121.06
2022-08-28T09:02:07.379Z,100125.19
2022-08-28T09:05:17.278Z,100115.25
2022-08-28T09:08:19.280Z,100110.34
2022-08-28T09:11:50.383Z,100119.81
2022-08-28T09:15:11.335Z,100117.00
2022-08-28T09:18:22.529Z,100121.50
2022-08-28T09:21:29.241Z,100120.41
2022-08-28T09:24:33.032Z,100116.00
2022-08-28T09:27:52.715Z,100116.56
2022-08-28T09:31:19.613Z,100104.78
2022-08-28T09:34:35.466Z,100114.94
2022-08-28T09:37:32.270Z,100107.31
2022-08-28T09:40:52.004Z,100128.53
2022-08-28T09:43:47.578Z,100115.84
2022-08-28T09:46:45.013Z,100119.56
2022-08-28T09:49:37.316Z,100133.22
2022-08-28T09:52:28.894Z,100118.47
2022-08-28T09:55:49.386Z,100117.34
2022-08-28T09:59:03.225Z,100126.25
2022-08-28T10:02:38.600Z,100126.28
2022-08-28T10:05:55.873Z,100115.56
2022-08-28T10:09:06.851Z,100118.81
2022-08-28T10:12:41.315Z,100117.09
2022-08-28T10:16:15.032Z,100114.13
2022-08-28T10:20:00.412Z,100121.16
2022-08-28T10:23:37.743Z,100108.56
2022-08-28T10:26:48.920Z,100111.09
2022-08-28T10:29:53.887Z,100115.81
2022-08-28T10:33:34.286Z,100111.44
2022-08-28T10:36:34.644Z,100097.59
2022-08-28T10:39:56.422Z,100100.53
2022-08-28T10:43:07.598Z,100108.97
2022-08-28T10:46:07.782Z,100102.25
2022-08-28T10:49:11.211Z,100104.63
2022-08-28T10:52:19.865Z,100108.84
2022-08-28T10:55:43.308Z,100100.41
2022-08-28T10:58:39.667Z,100108.50
2022-08-28T11:01:40.687Z,100103.72
2022-08-28T11:04:30.009Z,100102.13
2022-08-28T11:07:37.915Z,100102.94
2022-08-28T11:10:52.990Z,100094.81
2022-08-28T11:13:57.632Z,100092.06
2022-08-28T11:16:47.646Z,100086.03
2022-08-28T11:20:28.943Z,100103.31
2022-08-28T11:23:46.764Z,100088.34
2022-08-28T11:27:16.894Z,100097.66
2022-08-28T11:30:31.835Z,100098.47
2022-08-28T11:33:52.419Z,100093.00
2022-08-28T11:37:03.741Z,100086.34
2022-08-28T11:40:54.676Z,100090.84
2022-08-28T11:43:47.386Z,100088.00
2022-08-28T11:46:48.381Z,100096.13
2022-08-28T11:49:42.778Z,100077.94
2022-08-28T11:52:52.839Z,100088.06
2022-08-28T11:56:43.658Z,100091.28
2022-08-28T12:00:05.216Z,100093.50
2022-08-28T12:03:15.237Z,100086.13
2022-08-28T12:06:04.675Z,100084.28
2022-08-28T12:09:05.001Z,100083.66
2022-08-28T12:12:07.973Z,100071.81
2022-08-28T12:15:07.689Z,100073.41
2022-08-28T12:18:11.977Z,100092.34
2022-08-28T12:21:31.068Z,100083.72
2022-08-28T12:24:24.512Z,100068.03
2022-08-28T12:27:16.122Z,100055.56
2022-08-28T12:30:06.393Z,100069.84
2022-08-28T12:33:44.351Z,100059.66
2022-08-28T12:36:37.212Z,100071.50
2022-08-28T12:39:31.106Z,100063.34
2022-08-28T12:42:29.907Z,100063.22
2022-08-28T12:45:31.068Z,100061.09
2022-08-28T12:48:48.120Z,100045.66
2022-08-28T12:51:38.470Z,100057.97
2022-08-28T12:54:30.342Z,100046.09
2022-08-28T12:57:25.131Z,100060.38
2022-08-28T13:00:24.417Z,100058.31
2022-08-28T13:03:15.881Z,100050.44
2022-08-28T13:06:09.907Z,100054.06
2022-08-28T13:09:04.698Z,100039.69
2022-08-28T13:11:53.063Z,100043.28
2022-08-28T13:14:46.879Z,100043.66
2022-08-28T13:17:52.719Z,100045.91
2022-08-28T13:20:44.156Z,100033.72
2022-08-28T13:23:34.617Z,100039.91
2022-08-28T13:26:36.368Z,100034.25
2022-08-28T13:29:26.787Z,100031.19
2022-08-28T13:32:19.854Z,100035.25
2022-08-28T13:35:25.173Z,100029.34
2022-08-28T13:38:20.056Z,100023.69
2022-08-28T13:41:13.203Z,100032.59
2022-08-28T13:44:02.884Z,100029.94
2022-08-28T13:46:55.742Z,100019.28
2022-08-28T13:49:44.993Z,100022.91
2022-08-28T13:52:37.499Z,100017.22
2022-08-28T13:55:28.229Z,100021.50
2022-08-28T13:58:18.181Z,100028.69
2022-08-28T14:01:10.569Z,100018.78
2022-08-28T14:04:01.144Z,100030.09
2022-08-28T14:06:51.066Z,100020.53
2022-08-28T14:09:41.477Z,100008.44
2022-08-28T14:12:33.615Z,100008.22
2022-08-28T14:15:25.758Z,100018.78
2022-08-28T14:18:17.577Z,100011.72
2022-08-28T14:21:09.306Z,100016.63
2022-08-28T14:24:00.511Z,100009.66
2022-08-28T14:26:51.595Z,100021.41
2022-08-28T14:29:44.836Z,100005.72
2022-08-28T14:32:37.474Z,100027.09
2022-08-28T14:35:29.588Z,100015.75
2022-08-28T14:38:21.363Z,100025.75
2022-08-28T14:41:14.713Z,100003.53
2022-08-28T14:44:04.375Z,100019.13
2022-08-28T14:46:57.200Z,100006.25
2022-08-28T14:49:46.702Z,100025.34
2022-08-28T14:52:38.985Z,100013.78
2022-08-28T14:55:30.842Z,100002.69
2022-08-28T14:58:22.090Z,100009.97
2022-08-28T15:01:30.246Z,100015.41
2022-08-28T15:04:34.735Z,100001.91
2022-08-28T15:07:26.769Z,100003.22
2022-08-28T15:10:17.369Z,99997.75
2022-08-28T15:13:10.375Z,99992.56
2022-08-28T15:16:15.705Z,99999.72
2022-08-28T15:19:13.200Z,100006.81
2022-08-28T15:22:04.653Z,100009.75
2022-08-28T15:24:55.795Z,100004.63
2022-08-28T15:27:47.184Z,99995.03
2022-08-28T15:30:39.855Z,99998.84
2022-08-28T15:33:30.161Z,99990.91
2022-08-28T15:36:24.589Z,99984.56
2022-08-28T15:39:34.642Z,99987.25
2022-08-28T15:42:26.386Z,99975.59
2022-08-28T15:45:20.766Z,99985.56
2022-08-28T15:48:13.818Z,99976.06
2022-08-28T15:51:03.237Z,99986.66
2022-08-28T15:53:54.862Z,99983.06
2022-08-28T15:56:46.919Z,99988.41
2022-08-28T15:59:49.741Z,99985.88
2022-08-28T16:02:43.028Z,99984.44
2022-08-28T16:05:40.669Z,99991.31
2022-08-28T16:08:31.422Z,99986.78
2022-08-28T16:11:23.658Z,99989.94
2022-08-28T16:14:20.440Z,99982.63
2022-08-28T16:17:11.677Z,99981.31
2022-08-28T16:20:06.473Z,99988.28
2022-08-28T16:23:02.602Z,99999.72
2022-08-28T16:25:51.969Z,99999.31
2022-08-28T16:28:44.942Z,99991.22
2022-08-28T16:31:35.572Z,99992.00
2022-08-28T16:34:31.480Z,99996.88
2022-08-28T16:37:23.332Z,99986.75
2022-08-28T16:40:14.848Z,99995.38
2022-08-28T16:43:08.186Z,99999.31
2022-08-28T16:45:58.192Z,99988.28
2022-08-28T16:48:49.151Z,99998.28
2022-08-28T16:51:39.922Z,99997.41
2022-08-28T16:54:31.564Z,100007.44
2022-08-28T16:57:22.542Z,99997.91
2022-08-28T17:00:16.483Z,100005.50
2022-08-28T17:03:04.763Z,100000.69
2022-08-28T17:05:57.272Z,99997.97
2022-08-28T17:08:48.261Z,99992.00
2022-08-28T17:11:36.890Z,99987.72
2022-08-28T17:14:30.621Z,99993.47
2022-08-28T17:17:20.962Z,99996.41
2022-08-28T17:20:31.666Z,99994.34
2022-08-28T17:23:24.639Z,99987.22
2022-08-28T17:26:17.675Z,99988.53
2022-08-28T17:29:10.027Z,99990.06
2022-08-28T17:32:01.325Z,99996.34
2022-08-28T17:34:50.777Z,99996.44
2022-08-28T17:37:43.861Z,99993.69
2022-08-28T17:40:34.410Z,99993.47
2022-08-28T17:43:28.161Z,99997.13
2022-08-28T17:46:19.956Z,100002.63
2022-08-28T17:49:11.609Z,100005.44
2022-08-28T17:52:02.132Z,100012.78
2022-08-28T17:54:50.215Z,100010.72
2022-08-28T17:57:40.911Z,100013.28
2022-08-28T18:00:28.929Z,100013.34
2022-08-28T18:03:16.987Z,100009.59
2022-08-28T18:06:06.767Z,100017.88
2022-08-28T18:08:54.814Z,100011.31
2022-08-28T18:11:43.257Z,100015.59
2022-08-28T18:14:31.275Z,100032.47
2022-08-28T18:17:19.482Z,100034.59
2022-08-28T18:20:11.145Z,100032.66
2022-08-28T18:23:01.385Z,100045.44
2022-08-28T18:25:52.937Z,100046.59
2022-08-28T18:28:43.619Z,100056.91
2022-08-28T18:31:33.239Z,100055.66
2022-08-28T18:34:22.648Z,100050.16
2022-08-28T18:37:14.074Z,100061.22
2022-08-28T18:40:03.435Z,100058.94
2022-08-28T18:42:52.129Z,100063.13
2022-08-28T18:45:42.294Z,100042.97
2022-08-28T18:48:32.457Z,100072.38
2022-08-28T18:51:23.423Z,100063.78
2022-08-28T18:54:17.824Z,100073.28
2022-08-28T18:57:05.949Z,100078.47
2022-08-28T18:59:55.185Z,100088.53
2022-08-28T19:02:44.130Z,100106.97
2022-08-28T19:05:33.586Z,100099.31
2022-08-28T19:08:22.990Z,100111.59
2022-08-28T19:11:13.302Z,100115.75
2022-08-28T19:14:03.946Z,100125.00
2022-08-28T19:16:52.084Z,100111.97
2022-08-28T19:19:40.083Z,100123.22
2022-08-28T19:22:28.583Z,100124.75
2022-08-28T19:25:27.907Z,100124.72
2022-08-28T19:28:16.915Z,100137.25
2022-08-28T19:31:05.286Z,100144.16
2022-08-28T19:33:53.375Z,100143.13
2022-08-28T19:36:41.943Z,100142.81
2022-08-28T19:39:30.329Z,100143.31
2022-08-28T19:42:19.467Z,100150.72
2022-08-28T19:45:11.708Z,100158.41
2022-08-28T19:48:00.210Z,100160.19
2022-08-28T19:50:48.807Z,100152.94
2022-08-28T19:53:37.615Z,100164.75
2022-08-28T19:56:33.806Z,100169.59
2022-08-28T19:59:26.526Z,100173.41
2022-08-28T20:02:15.040Z,100149.34
2022-08-28T20:05:04.647Z,100170.59
2022-08-28T20:07:52.684Z,100178.28
2022-08-28T20:10:43.743Z,100173.63
2022-08-28T20:13:33.313Z,100177.72
2022-08-28T20:16:21.766Z,100176.97
2022-08-28T20:19:12.519Z,100177.19
2022-08-28T20:22:00.380Z,100180.53
2022-08-28T20:24:48.251Z,100183.84
2022-08-28T20:27:36.525Z,100164.03
2022-08-28T20:30:25.174Z,100181.97
2022-08-28T20:33:13.490Z,100188.59
2022-08-28T20:36:04.554Z,100195.94
2022-08-28T20:38:52.619Z,100190.53
2022-08-28T20:41:44.635Z,100186.38
2022-08-28T20:44:32.530Z,100196.16
2022-08-28T20:47:22.014Z,100194.31
2022-08-28T20:50:12.696Z,100196.25
2022-08-28T20:53:03.771Z,100169.75
2022-08-28T20:55:59.892Z,100183.78
2022-08-28T20:58:47.748Z,100188.03
2022-08-28T21:01:35.807Z,100198.69
2022-08-28T21:04:24.401Z,100173.19
2022-08-28T21:07:15.702Z,100201.09
2022-08-28T21:10:07.869Z,100209.44
2022-08-28T21:12:55.990Z,100208.63
2022-08-28T21:15:43.936Z,100213.41
2022-08-28T21:18:31.887Z,100211.88
2022-08-28T21:21:19.718Z,100208.50
2022-08-28T21:24:12.309Z,100222.84
2022-08-28T21:27:00.206Z,100212.09
2022-08-28T21:29:48.088Z,100229.97
2022-08-28T21:32:37.001Z,100231.72
2022-08-28T21:35:24.907Z,100233.53
2022-08-28T21:38:12.835Z,100239.56
2022-08-28T21:41:14.538Z,100237.13
2022-08-28T21:44:03.030Z,100252.06
2022-08-28T21:46:51.102Z,100224.22
2022-08-28T21:49:39.207Z,100236.97
2022-08-28T21:52:30.399Z,100252.66
2022-08-28T21:55:18.240Z,100240.59
2022-08-28T21:58:06.046Z,100252.38
2022-08-28T22:00:59.060Z,100244.97
2022-08-28T22:03:47.621Z,100242.41
2022-08-28T22:06:35.511Z,100248.78
2022-08-28T22:09:24.877Z,100257.88
2022-08-28T22:12:12.814Z,100252.47
2022-08-28T22:15:01.048Z,100263.50
2022-08-28T22:17:48.891Z,100270.00
2022-08-28T22:20:59.237Z,100257.94
2022-08-28T22:23:47.795Z,100264.03
2022-08-28T22:26:36.193Z,100268.75
2022-08-28T22:29:24.309Z,100268.56
2022-08-28T22:32:12.180Z,100272.88
2022-08-28T22:35:00.059Z,100273.66
2022-08-28T22:37:47.880Z,100270.41
2022-08-28T22:40:35.700Z,100267.59
2022-08-28T22:43:24.131Z,100262.97
2022-08-28T22:46:12.501Z,100265.56
2022-08-28T22:49:00.398Z,100272.78
2022-08-28T22:51:48.895Z,100256.31
2022-08-28T22:54:36.920Z,100270.69
2022-08-28T22:57:24.973Z,100272.34
2022-08-28T23:00:19.521Z,100265.00
2022-08-28T23:03:07.773Z,100232.28
2022-08-28T23:05:55.600Z,100267.38
2022-08-28T23:08:43.538Z,100270.00
2022-08-28T23:11:31.493Z,100267.09
2022-08-28T23:14:19.462Z,100267.88
2022-08-28T23:17:07.559Z,100260.53
2022-08-28T23:19:56.134Z,100272.25
2022-08-28T23:22:43.981Z,100271.94
2022-08-28T23:25:31.881Z,100264.91
2022-08-28T23:28:20.298Z,100256.00
2022-08-28T23:31:08.925Z,100270.00
2022-08-28T23:33:56.715Z,100265.69
2022-08-28T23:36:45.039Z,100262.09
2022-08-28T23:39:33.486Z,100256.59
2022-08-28T23:42:21.338Z,100265.75
2022-08-28T23:45:11.554Z,100263.84
2022-08-28T23:47:59.637Z,100259.84
2022-08-28T23:50:47.766Z,100263.56
2022-08-28T23:53:35.737Z,100251.06
2022-08-28T23:56:23.858Z,100241.91
2022-08-28T23:59:16.061Z,100247.31
